Whitleys Peak, Santa Catalina Island Weather observations

Data are for 10 minute period ending at time listed.
 Day   Time   Solar   Ave.   Ave.  Ave.  Vector    Max.   Stn.    Total
  of    of     Rad.   Air    Rel.  Wind   Wind     Wind   Baro.  Precip.
Year   Day            Temp.  Hum.  Speed  Dir.     Gust   Pres.         
2016   (PST)   W/m2    F      %     mph   deg.      mph    mb.     in.  
------------------------------------------------------------------------
 147    0:10    0.0    52   96.5     9    208.9    11.9    999.0   0.00  
 147    0:20    0.0    52   96.5     8    207.0    11.3    999.0   0.00  
 147    0:30    0.0    52   96.4     8    208.2    10.8    999.0   0.00  
 147    0:40    0.0    52   96.3     8    201.5    11.3    999.0   0.00  
 147    0:50    0.0    51   96.4     8    187.8     9.6    999.0   0.00  
 147    1:00    0.0    51   96.4     8    180.4    10.8    999.0   0.00  
 147    1:10    0.0    51   96.2     8    184.1    10.8    999.0   0.00  
 147    1:20    0.0    51   96.1     8    171.9    10.2    999.0   0.00  
 147    1:30    0.0    52   95.9    10    128.1    13.1    999.0   0.00  
 147    1:40    0.0    52   95.2     8    162.5    11.3    999.0   0.00  
 147    1:50    0.0    51   95.7     9    158.4    12.5    999.0   0.00  
 147    2:00    0.0    51   95.5     7    159.9    11.9    999.0   0.00  
 147    2:10    0.0    52   95.4     8    137.7    11.3    999.0   0.00  
 147    2:20    0.0    52   94.9     8    147.2    10.8    999.0   0.00  
 147    2:30    0.0    52   94.8     9    124.3    12.5    999.0   0.00  
 147    2:40    0.0    52   94.3     7    114.8    10.8    999.0   0.00  
 147    2:50    0.0    52   94.6     5    115.6    10.2    999.0   0.00  
 147    3:00    0.0    52   94.7     6    106.8     9.6    999.0   0.00  
 147    3:10    0.0    52   94.8     4    113.9     7.2    999.0   0.00  
 147    3:20    0.0    52   94.9     4    111.7     7.8    999.0   0.00  
 147    3:30    0.0    52   95.0     2    119.9     7.2    999.0   0.00  
 147    3:40    0.0    52   95.1     4    103.8     9.0    999.0   0.00  
 147    3:50    0.0    53   95.1    10     81.4    13.7    999.0   0.00  
 147    4:00    0.0    53   94.9     7     72.3     9.6    999.0   0.00  
 147    4:10    0.0    53   95.1     9     65.0    11.3    999.0   0.00  
 147    4:20    0.0    53   95.4     9     55.0    10.8    999.0   0.00  
 147    4:30    0.0    53   95.7     9     55.0    11.9    999.0   0.00  
 147    4:40    0.0    53   95.7     8     49.4    10.2    999.0   0.00  
 147    4:50    3.0    53   95.5     8     49.6    11.3    999.0   0.00  
 147    5:00    6.0    53   95.3     5     34.0     7.8    999.0   0.00  
 147    5:10   11.0    53   95.5     5     33.3     8.4    999.0   0.00  
 147    5:20   13.0    53   95.0     7     36.0    10.2    999.0   0.00  
 147    5:30   13.0    53   93.9     6     17.2     9.0    999.0   0.00  
 147    5:40   20.0    53   93.6     4      4.5     6.6    999.0   0.00  
 147    5:50   28.0    53   93.4     6     13.4     8.4    999.0   0.00  
 147    6:00   44.0    54   93.1     4     12.4     6.6    999.0   0.00  
 147    6:10   60.0    54   92.9     4    344.6     6.6    999.0   0.00  
 147    6:20   65.0    54   92.8     3     15.1     4.8    999.0   0.00  
 147    6:30   80.0    55   91.8     5     65.0     6.6    999.0   0.00  
 147    6:40   95.0    55   90.3     5     82.3     6.6    999.0   0.00  
 147    6:50  130.0    55   89.8     5     75.6     7.8    999.0   0.00  
 147    7:00  164.0    56   87.7     5     89.7     8.4    999.0   0.00  
 147    7:10  144.0    56   86.8     4    100.5     7.2    999.0   0.00  
 147    7:20  175.0    56   86.6     4    108.4     7.8    999.0   0.00  
 147    7:30  219.0    57   85.5     5     86.3     9.0    999.0   0.00  
 147    7:40  213.0    57   86.5     7     81.3     9.0    999.0   0.00  
 147    7:50  209.0    56   86.4     8     83.4    10.8    999.0   0.00  
 147    8:00  214.0    56   86.3     8     83.1    10.8    999.0   0.00  
 147    8:10  245.0    56   86.8     8     83.1    11.3    999.0   0.00  
 147    8:20  391.0    57   85.2     7     74.2    10.8    999.0   0.00  
 147    8:30  434.0    58   83.1     8     75.6    11.3    999.0   0.00  
 147    8:40  469.0    60   80.9     7     66.4    10.8    999.0   0.00  
 147    8:50  604.0    61   77.9     8     67.5    10.8    999.0   0.00  
 147    9:00  568.0    60   78.6     9     76.3    13.7    999.0   0.00  
 147    9:10  642.0    60   79.1    11     83.1    14.9    999.0   0.00  
 147    9:20  669.0    60   77.4    10     76.2    13.7    999.0   0.00  
 147    9:30  699.0    62   74.7     8     79.6    11.3    999.0   0.00  
 147    9:40  731.0    62   74.4     7     67.3     9.6    999.0   0.00  
 147    9:50  782.0    65   68.0     8     56.0    10.8    999.0   0.00  
 147   10:00  843.0    63   70.1     8     72.1    11.9    999.0   0.00  
 147   10:10  883.0    64   68.1     9     65.6    11.9    999.0   0.00  
 147   10:20  806.0    66   64.3     7     46.7    10.8    999.0   0.00  
 147   10:30  816.0    66   64.5     8     49.8    11.3    999.0   0.00  
 147   10:40  827.0    65   65.5     7     45.1    10.2    999.0   0.00  
 147   10:50  842.0    65   66.3     6     33.7    10.2    999.0   0.00  
 147   11:00  854.0    65   65.8     8     43.7    11.3    999.0   0.00  
 147   11:10  872.0    66   64.8     8     51.1    10.8    999.0   0.00  
 147   11:20  854.0    65   66.4     8     52.0    11.3    999.0   0.00  
 147   11:30  863.0    64   68.4     7     38.6    11.3    999.0   0.00  
 147   11:40  876.0    65   67.5     7     43.7    11.3    999.0   0.00  
 147   11:50  878.0    66   66.3     8     48.1    11.3    999.0   0.00  
 147   12:00  874.0    65   67.8     8     42.4    12.5    999.0   0.00  
 147   12:10  895.0    66   66.4     8     47.8    11.3    999.0   0.00  
 147   12:20  842.0    66   66.5     7     40.5    10.8    999.0   0.00  
 147   12:30  811.0    65   68.8     7     40.0    13.1    999.0   0.00  
 147   12:40  786.0    64   68.9     6     38.9    10.8    999.0   0.00  
 147   12:50  828.0    65   67.8     7     36.8    12.5    999.0   0.00  
 147   13:00  838.0    64   70.6     7     36.1    10.2    999.0   0.00  
 147   13:10  825.0    64   69.9     7     29.2    10.8    999.0   0.00  
 147   13:20  859.0    65   68.7     8     44.1    10.8    999.0   0.00  
 147   13:30  767.0    66   67.6     6     37.0    10.2    999.0   0.00  
 147   13:40  719.0    63   73.6     6     22.6    10.8    999.0   0.00  
 147   13:50  820.0    63   73.4     6     10.9    10.2    999.0   0.00  
 147   14:00  784.0    63   74.6     6     17.0     7.8    999.0   0.00  
 147   14:10  768.0    66   68.8     5     30.4     9.6    999.0   0.00  
 147   14:20  746.0    64   71.6     7     64.6    10.8    999.0   0.00  
 147   14:30  727.0    63   73.0     8     70.8    10.8    999.0   0.00  
 147   14:40  707.0    61   76.8     8     84.1    11.9    999.0   0.00  
 147   14:50  715.0    61   77.3     8    101.5    12.5    999.0   0.00  
 147   15:00  664.0    61   77.6     8    106.1    11.9    999.0   0.00  
 147   15:10  686.0    65   70.2     4    238.0    10.8    999.0   0.00  
 147   15:20  640.0    66   70.4     6    260.5    12.5    999.0   0.00  
 147   15:30  595.0    63   76.4     9    252.2    15.5    999.0   0.00  
 147   15:40  565.0    62   77.7    11    258.8    16.1    999.0   0.00  
 147   15:50  540.0    60   83.0    15    237.6    19.1    999.0   0.00  
 147   16:00  514.0    59   83.4    15    231.5    20.9    999.0   0.00  
 147   16:10  485.0    59   84.0    15    230.6    19.1    999.0   0.00  
 147   16:20  454.0    59   84.0    15    234.6    20.9    999.0   0.00  
 147   16:30  428.0    58   85.7    16    231.2    21.5    999.0   0.00  
 147   16:40  396.0    58   85.3    16    228.4    20.3    999.0   0.00  
 147   16:50  364.0    59   83.3    12    234.7    16.7    999.0   0.00  
 147   17:00  331.0    58   84.0    14    240.2    17.9    999.0   0.00  
 147   17:10  299.0    57   84.6    15    235.9    20.3    999.0   0.00  
 147   17:20  268.0    57   86.0    15    239.1    20.9    999.0   0.00  
 147   17:30  237.0    57   84.0    13    236.8    18.5    999.0   0.00  
 147   17:40  206.0    58   83.5    12    230.2    16.7    999.0   0.00  
 147   17:50  176.0    57   82.9    12    223.2    17.3    999.0   0.00  
 147   18:00  146.0    56   85.1    16    221.2    22.7    999.0   0.00  
 147   18:10  118.0    56   86.8    16    220.5    20.3    999.0   0.00  
 147   18:20   90.0    56   87.8    16    220.6    19.7    999.0   0.00  
 147   18:30   60.0    55   87.0    15    222.3    17.3    999.0   0.00  
 147   18:40   35.0    55   85.7    13    219.9    17.3    999.0   0.00  
 147   18:50   18.0    55   86.2    13    219.6    14.9    999.0   0.00  
 147   19:00    7.0    55   86.0    11    222.3    13.7    999.0   0.00  
 147   19:10    1.0    55   85.1    11    214.7    14.9    999.0   0.00  
 147   19:20    0.0    54   85.0     9    210.9    11.3    999.0   0.00  
 147   19:30    0.0    54   88.3    10    204.3    13.1    999.0   0.00  
 147   19:40    0.0    53   90.1    10    211.8    11.3    999.0   0.00  
 147   19:50    0.0    53   91.6    11    211.0    12.5    999.0   0.00  
 147   20:00    0.0    53   92.9     9    203.9    11.3    999.0   0.00  
 147   20:10    0.0    52   93.6     9    201.3    10.2    999.0   0.00  
 147   20:20    0.0    52   93.8     9    203.7    11.9    999.0   0.00  
 147   20:30    0.0    52   94.5    11    209.4    13.7    999.0   0.00  
 147   20:40    0.0    52   95.3    10    211.3    11.9    999.0   0.00  
 147   20:50    0.0    52   95.6    10    211.5    11.3    999.0   0.00  
 147   21:00    0.0    52   95.9    10    214.9    11.3    999.0   0.00  
 147   21:10    0.0    52   96.1    10    211.9    11.9    999.0   0.00  
 147   21:20    0.0    52   96.3    11    211.9    12.5    999.0   0.00  
 147   21:30    0.0    52   96.4    11    208.5    13.1    999.0   0.00  
 147   21:40    0.0    52   96.6    12    206.2    13.7    999.0   0.00  
 147   21:50    0.0    52   96.7    11    202.5    13.1    999.0   0.00  
 147   22:00    0.0    52   96.9     9    196.3    13.1    999.0   0.00  
 147   22:10    0.0    52   97.1     9    196.0    10.2    999.0   0.00  
 147   22:20    0.0    52   97.2     9    201.8    11.9    999.0   0.00  
 147   22:30    0.0    51   97.3    11    203.4    11.9    999.0   0.00  
 147   22:40    0.0    51   97.5    12    201.5    13.7    999.0   0.00  
 147   22:50    0.0    51   97.6    10    202.3    11.9    999.0   0.00  
 147   23:00    0.0    51   97.6    10    208.4    11.9    999.0   0.00  
 147   23:10    0.0    51   97.7    10    208.6    11.9    999.0   0.00  
 147   23:20    0.0    51   97.8    11    206.2    12.5    999.0   0.00  
 147   23:30    0.0    51   97.8    12    204.9    14.9    999.0   0.00  
 147   23:40    0.0    51   97.9    12    198.6    13.7    999.0   0.00  
 147   23:50    0.0    51   97.9    12    199.9    15.5    999.0   0.00  
 148    0:00    0.0    51   97.9    12    199.1    13.7    999.0   0.00  

Return to Whitleys Peak graphs page.


Western Regional Climate Center,wrcc@dri.edu